Time;durP1;ratioP1;P1;durP2;ratioP2;P2;SDS_P1;SDS_P2;PMS_P1;PMS_P2;Temp;Humidity;BMP_temperature;BMP_pressure;BME280_temperature;BME280_humidity;BME280_pressure;Samples;Min_cycle;Max_cycle;Signal;HPM_P1;HPM_P2
2021/05/16 17:41:41;;;;;;;7.35;3.95;;;20.40;73.00;;;;;;5055639;28;20053;-85
2021/05/16 17:44:07;;;;;;;7.95;3.45;;;20.30;74.40;;;;;;5055119;28;20422;-87
2021/05/16 17:46:33;;;;;;;6.75;3.70;;;20.30;74.90;;;;;;5053943;28;20498;-87
2021/05/16 17:48:59;;;;;;;7.60;4.00;;;20.20;74.90;;;;;;5053939;28;20479;-85
2021/05/16 17:51:24;;;;;;;5.22;4.57;;;20.20;75.60;;;;;;5055221;28;20025;-83
2021/05/16 17:53:50;;;;;;;8.43;6.22;;;20.20;76.00;;;;;;5055246;28;20024;-86
2021/05/16 17:56:16;;;;;;;31.25;13.82;;;20.10;76.20;;;;;;5055171;28;20344;-85
2021/05/16 17:58:45;;;;;;;17.73;7.72;;;20.00;76.60;;;;;;5054957;28;20033;-86
2021/05/16 18:01:12;;;;;;;12.10;6.28;;;20.00;76.80;;;;;;5053792;28;20074;-86
2021/05/16 18:03:37;;;;;;;16.95;7.72;;;19.90;77.00;;;;;;5055699;28;20029;-85
2021/05/16 18:06:05;;;;;;;17.73;13.23;;;19.90;77.90;;;;;;5054341;28;20443;-93
2021/05/16 18:08:31;;;;;;;9.05;6.88;;;19.80;77.80;;;;;;5255610;22;20048;-86
2021/05/16 18:10:57;;;;;;;8.80;6.30;;;19.80;77.70;;;;;;5056455;28;20032;-85
2021/05/16 18:13:23;;;;;;;8.10;5.53;;;19.80;78.50;;;;;;5074617;28;20027;-85
2021/05/16 18:15:48;;;;;;;8.50;5.35;;;19.70;78.50;;;;;;5055693;28;20035;-84
2021/05/16 18:18:14;;;;;;;8.95;5.70;;;19.70;79.30;;;;;;5056307;28;20031;-85
2021/05/16 18:20:41;;;;;;;7.70;5.00;;;19.60;79.30;;;;;;5072500;28;20021;-85
2021/05/16 18:23:11;;;;;;;8.40;5.75;;;19.50;79.50;;;;;;5052232;28;20103;-86
2021/05/16 18:25:37;;;;;;;7.32;5.00;;;19.50;79.60;;;;;;5055682;28;20028;-85
2021/05/16 18:28:03;;;;;;;6.60;5.00;;;19.40;79.80;;;;;;5056332;28;20411;-85
2021/05/16 18:30:28;;;;;;;5.90;4.63;;;19.40;80.00;;;;;;5055378;28;20025;-85
2021/05/16 18:32:54;;;;;;;5.32;4.10;;;19.40;80.20;;;;;;5073958;28;20027;-85
2021/05/16 18:35:20;;;;;;;9.75;4.07;;;19.30;80.30;;;;;;5073311;28;20029;-85
2021/05/16 18:37:46;;;;;;;5.45;4.05;;;19.30;80.40;;;;;;5046089;28;20036;-85
2021/05/16 18:40:13;;;;;;;10.73;4.60;;;19.30;80.50;;;;;;5053510;28;20029;-85
2021/05/16 18:42:39;;;;;;;6.28;3.83;;;19.20;81.00;;;;;;5069030;28;20033;-85
2021/05/16 18:45:07;;;;;;;5.70;3.50;;;19.20;81.00;;;;;;5053641;28;20032;-85
2021/05/16 18:47:33;;;;;;;4.18;3.58;;;19.10;81.10;;;;;;5035819;28;20021;-85
2021/05/16 18:49:58;;;;;;;6.18;3.70;;;19.10;81.20;;;;;;5053652;28;20036;-85
2021/05/16 18:52:24;;;;;;;5.88;4.22;;;19.00;81.40;;;;;;5053133;28;20017;-85
2021/05/16 18:54:50;;;;;;;7.05;4.07;;;19.00;81.80;;;;;;5035890;28;20025;-86
2021/05/16 18:57:16;;;;;;;6.65;4.22;;;19.00;82.10;;;;;;5035648;28;20064;-86
2021/05/16 18:59:43;;;;;;;4.80;3.92;;;18.90;82.40;;;;;;5035061;28;20363;-86
2021/05/16 19:02:09;;;;;;;6.55;4.22;;;18.90;82.80;;;;;;5054013;28;20048;-86
2021/05/16 19:04:34;;;;;;;5.75;4.95;;;18.90;83.10;;;;;;5036002;28;20474;-86
2021/05/16 19:07:00;;;;;;;5.82;5.10;;;18.80;83.30;;;;;;5052697;28;20473;-86
2021/05/16 19:09:26;;;;;;;7.03;6.15;;;18.80;83.70;;;;;;5056068;28;20136;-81
2021/05/16 19:11:51;;;;;;;9.07;6.68;;;18.80;84.00;;;;;;5056287;28;20062;-89
2021/05/16 19:14:17;;;;;;;11.57;6.97;;;18.70;84.30;;;;;;5074262;28;20033;-94
2021/05/16 19:16:43;;;;;;;10.70;7.43;;;18.70;84.50;;;;;;5056477;28;20054;-88
2021/05/16 19:19:09;;;;;;;10.55;7.28;;;18.70;84.80;;;;;;5074652;28;20029;-88
2021/05/16 19:21:35;;;;;;;14.07;8.52;;;18.70;85.10;;;;;;5054471;28;20024;-87
2021/05/16 19:24:00;;;;;;;13.48;9.80;;;18.70;85.20;;;;;;5074076;28;20103;-87
2021/05/16 19:26:26;;;;;;;14.35;10.13;;;18.70;85.20;;;;;;5055927;28;20031;-86
2021/05/16 19:28:52;;;;;;;24.60;12.98;;;18.70;85.30;;;;;;5055826;28;20021;-87
2021/05/16 19:31:17;;;;;;;18.13;11.90;;;18.60;85.40;;;;;;5056170;28;20058;-87
2021/05/16 19:33:43;;;;;;;14.02;9.98;;;18.70;85.60;;;;;;5056127;28;20059;-87
2021/05/16 19:36:09;;;;;;;14.85;9.85;;;18.70;85.80;;;;;;5054289;28;20036;-86
2021/05/16 19:38:35;;;;;;;13.75;8.60;;;18.70;86.00;;;;;;5055710;28;20029;-90
2021/05/16 19:41:01;;;;;;;10.30;7.47;;;18.60;86.00;;;;;;5056015;28;20517;-88
2021/05/16 19:43:27;;;;;;;9.75;6.15;;;18.70;86.10;;;;;;5056191;28;20120;-88
2021/05/16 19:45:53;;;;;;;7.75;5.78;;;18.70;85.90;;;;;;5054393;28;20025;-86
2021/05/16 19:48:19;;;;;;;6.10;5.10;;;18.70;85.80;;;;;;5074079;28;20044;-93
2021/05/16 19:50:48;;;;;;;8.70;6.55;;;18.70;86.00;;;;;;5056470;28;20487;-93
2021/05/16 19:53:16;;;;;;;15.40;9.20;;;18.70;85.90;;;;;;5073480;28;20028;-80
2021/05/16 19:55:43;;;;;;;18.15;13.55;;;18.70;85.80;;;;;;5055339;28;20385;-79
2021/05/16 19:58:09;;;;;;;23.67;16.65;;;18.70;85.90;;;;;;5055389;28;20016;-78
2021/05/16 20:00:35;;;;;;;18.25;14.30;;;18.80;86.10;;;;;;5072506;28;20465;-80
2021/05/16 20:03:02;;;;;;;18.23;12.38;;;18.70;86.20;;;;;;5073095;28;20405;-78
2021/05/16 20:05:29;;;;;;;19.80;14.90;;;18.80;86.20;;;;;;5055337;28;20064;-80
2021/05/16 20:07:55;;;;;;;17.55;12.50;;;18.80;86.10;;;;;;5055179;28;20119;-79
2021/05/16 20:10:21;;;;;;;14.57;11.38;;;18.80;86.30;;;;;;5074486;28;20485;-79
2021/05/16 20:12:47;;;;;;;13.95;11.88;;;18.80;86.30;;;;;;5076889;28;20055;-79
2021/05/16 20:15:15;;;;;;;22.33;13.30;;;18.80;86.40;;;;;;5057364;28;20120;-80
2021/05/16 20:17:42;;;;;;;20.52;13.77;;;18.80;86.50;;;;;;5076838;28;20540;-82
2021/05/16 20:20:10;;;;;;;23.65;15.10;;;18.80;86.50;;;;;;5057957;28;20487;-79
2021/05/16 20:22:36;;;;;;;24.50;14.48;;;18.80;86.60;;;;;;5076985;28;20029;-86
2021/05/16 20:25:07;;;;;;;24.10;15.80;;;18.80;86.90;;;;;;5058697;28;20029;-85
2021/05/16 20:27:35;;;;;;;29.95;15.48;;;18.80;86.90;;;;;;5058706;28;20544;-85
2021/05/16 20:30:12;;;;;;;22.60;13.88;;;18.80;86.90;;;;;;5076017;28;20083;-85
2021/05/16 20:32:38;;;;;;;53.72;31.20;;;18.80;87.00;;;;;;5058830;28;20021;-85
2021/05/16 20:35:05;;;;;;;85.28;49.83;;;18.80;87.00;;;;;;5076849;28;20028;-85
2021/05/16 20:37:31;;;;;;;101.22;56.60;;;18.80;87.10;;;;;;5075528;28;20055;-85
2021/05/16 20:39:57;;;;;;;103.78;58.05;;;18.80;87.30;;;;;;5058688;28;20052;-85
2021/05/16 20:42:22;;;;;;;114.45;63.55;;;18.70;87.20;;;;;;5076690;28;20520;-85
2021/05/16 20:44:48;;;;;;;67.75;37.78;;;18.70;87.10;;;;;;5075614;28;20056;-85
2021/05/16 20:47:14;;;;;;;35.00;20.60;;;18.70;86.60;;;;;;5076427;28;20048;-83
2021/05/16 20:49:40;;;;;;;17.42;10.18;;;18.70;85.60;;;;;;5058546;28;20111;-83
2021/05/16 20:52:06;;;;;;;12.75;7.10;;;18.80;84.70;;;;;;5076393;28;20028;-85
2021/05/16 20:54:31;;;;;;;5.93;4.43;;;18.80;83.60;;;;;;5076380;28;20033;-81
2021/05/16 20:56:57;;;;;;;3.88;3.10;;;18.90;82.20;;;;;;5075509;28;20044;-86
2021/05/16 20:59:23;;;;;;;3.42;2.70;;;19.00;81.20;;;;;;5076377;28;20036;-83
2021/05/16 21:01:48;;;;;;;2.30;2.10;;;19.10;80.00;;;;;;5076429;28;20021;-85
2021/05/16 21:04:15;;;;;;;2.78;1.90;;;19.20;78.70;;;;;;5058390;28;20529;-81
2021/05/16 21:06:41;;;;;;;2.38;1.75;;;19.20;77.90;;;;;;5076437;28;20052;-82
2021/05/16 21:09:07;;;;;;;3.95;1.85;;;19.40;76.40;;;;;;5076248;28;20072;-83
2021/05/16 21:11:33;;;;;;;2.90;2.35;;;19.40;75.60;;;;;;5056642;28;20021;-82
2021/05/16 21:13:59;;;;;;;2.25;2.05;;;19.50;74.50;;;;;;5058164;28;20079;-88
2021/05/16 21:16:25;;;;;;;2.60;2.40;;;19.50;74.50;;;;;;5057768;28;20060;-81
2021/05/16 21:18:56;;;;;;;3.25;1.90;;;19.60;73.50;;;;;;5075921;28;20378;-83
2021/05/16 21:21:22;;;;;;;4.47;2.28;;;19.60;73.40;;;;;;5057214;28;20090;-84
2021/05/16 21:23:48;;;;;;;3.25;1.88;;;19.60;72.20;;;;;;5057943;28;20116;-86
2021/05/16 21:26:14;;;;;;;1.70;1.60;;;19.60;71.90;;;;;;5074243;28;20108;-87
2021/05/16 21:28:39;;;;;;;2.80;1.77;;;19.60;71.80;;;;;;5057871;28;20016;-85
2021/05/16 21:31:05;;;;;;;2.28;1.40;;;19.60;71.90;;;;;;5057826;28;20458;-83
2021/05/16 21:33:32;;;;;;;1.50;1.40;;;19.70;71.40;;;;;;5057855;28;20025;-84
2021/05/16 21:35:58;;;;;;;2.10;1.48;;;19.70;71.10;;;;;;5075909;28;20023;-83
2021/05/16 21:38:23;;;;;;;2.42;1.20;;;19.70;70.60;;;;;;5057342;28;20025;-81
2021/05/16 21:40:49;;;;;;;1.23;1.15;;;19.70;70.80;;;;;;5056507;28;20482;-84
2021/05/16 21:43:15;;;;;;;2.10;1.80;;;19.70;70.70;;;;;;5057586;28;20497;-84
2021/05/16 21:45:41;;;;;;;4.82;1.38;;;19.70;70.70;;;;;;5057396;28;20021;-85
2021/05/16 21:48:07;;;;;;;1.52;1.40;;;19.70;71.30;;;;;;5057291;28;20024;-84
2021/05/16 21:50:33;;;;;;;3.90;1.25;;;19.60;71.30;;;;;;5057493;28;20363;-84
2021/05/16 21:52:59;;;;;;;1.42;1.33;;;19.60;71.00;;;;;;5057297;28;20013;-85
2021/05/16 21:55:25;;;;;;;3.83;1.90;;;19.60;71.70;;;;;;5074032;28;20525;-85
2021/05/16 21:57:53;;;;;;;1.83;1.73;;;19.60;71.50;;;;;;5075296;28;20489;-84
2021/05/16 22:00:25;;;;;;;1.98;1.88;;;19.60;72.00;;;;;;5057964;28;20074;-84
2021/05/16 22:02:51;;;;;;;1.92;1.60;;;19.60;72.40;;;;;;5057203;28;20082;-83
2021/05/16 22:05:17;;;;;;;2.08;1.88;;;19.50;74.20;;;;;;5057108;28;20036;-84
2021/05/16 22:07:44;;;;;;;7.25;2.42;;;19.50;74.70;;;;;;5057027;28;20024;-85
2021/05/16 22:10:13;;;;;;;2.25;2.05;;;19.40;75.40;;;;;;5074012;28;20095;-84
2021/05/16 22:12:39;;;;;;;2.75;2.28;;;19.40;76.10;;;;;;5074904;28;20543;-84
2021/05/16 22:15:06;;;;;;;4.40;2.10;;;19.30;76.60;;;;;;5074745;28;20040;-85
2021/05/16 22:17:32;;;;;;;2.75;2.22;;;19.30;77.20;;;;;;5056915;28;20033;-84
2021/05/16 22:20:00;;;;;;;3.60;2.03;;;19.30;77.80;;;;;;5056893;28;20036;-83
2021/05/16 22:22:26;;;;;;;4.15;2.40;;;19.30;78.30;;;;;;5074769;28;20025;-84
2021/05/16 22:24:52;;;;;;;2.35;2.00;;;19.30;78.60;;;;;;5073188;28;20043;-84
2021/05/16 22:27:18;;;;;;;3.65;1.85;;;19.20;79.20;;;;;;5056595;28;20547;-84
2021/05/16 22:29:44;;;;;;;2.63;1.63;;;19.20;79.30;;;;;;5056628;28;20473;-83
2021/05/16 22:32:10;;;;;;;2.92;1.83;;;19.10;79.70;;;;;;5074595;28;20029;-84
2021/05/16 22:34:35;;;;;;;2.10;1.90;;;19.10;80.10;;;;;;5074466;28;20031;-83
2021/05/16 22:37:01;;;;;;;2.10;1.90;;;19.10;80.70;;;;;;5074477;28;20021;-84
2021/05/16 22:39:27;;;;;;;2.17;2.00;;;19.00;81.20;;;;;;5055378;28;20067;-83
2021/05/16 22:41:52;;;;;;;2.25;2.05;;;19.00;81.80;;;;;;5074010;28;20032;-83
2021/05/16 22:44:21;;;;;;;2.33;1.98;;;19.00;82.00;;;;;;5056407;28;20033;-84
2021/05/16 22:46:48;;;;;;;1.95;1.85;;;19.00;82.30;;;;;;5056302;28;20046;-83
2021/05/16 22:49:13;;;;;;;5.82;1.90;;;19.00;82.50;;;;;;5056204;28;20021;-84
2021/05/16 22:51:39;;;;;;;3.08;2.00;;;19.00;82.80;;;;;;5056251;28;20491;-83
2021/05/16 22:54:05;;;;;;;3.92;2.03;;;18.90;82.90;;;;;;5073330;28;20029;-83
2021/05/16 22:56:31;;;;;;;2.58;2.10;;;18.90;83.40;;;;;;5056287;28;20537;-83
2021/05/16 22:58:56;;;;;;;2.55;2.20;;;18.90;84.10;;;;;;5074375;28;20378;-83
2021/05/16 23:01:23;;;;;;;11.77;2.47;;;18.90;85.00;;;;;;5056074;28;20381;-82
2021/05/16 23:03:49;;;;;;;3.25;2.38;;;18.90;85.70;;;;;;5055969;28;20020;-81
2021/05/16 23:06:15;;;;;;;2.97;2.50;;;18.80;86.60;;;;;;5055605;28;20477;-81
2021/05/16 23:08:42;;;;;;;5.20;2.78;;;18.70;87.00;;;;;;5071987;28;20055;-81
2021/05/16 23:11:07;;;;;;;3.42;2.30;;;18.70;87.40;;;;;;5073927;28;20028;-81
2021/05/16 23:13:33;;;;;;;3.97;2.85;;;18.60;88.10;;;;;;5055647;28;20028;-81
2021/05/16 23:15:59;;;;;;;4.25;2.63;;;18.60;88.50;;;;;;5055730;28;20081;-82
2021/05/16 23:18:26;;;;;;;4.18;2.50;;;18.60;89.00;;;;;;5055838;28;20032;-86
2021/05/16 23:20:52;;;;;;;4.10;2.35;;;18.50;89.50;;;;;;5055864;28;20074;-86
2021/05/16 23:23:18;;;;;;;2.97;2.30;;;18.40;89.90;;;;;;5072369;28;20020;-86
2021/05/16 23:25:44;;;;;;;5.32;3.05;;;18.30;90.40;;;;;;5055756;28;20434;-86
2021/05/16 23:28:10;;;;;;;8.15;3.17;;;18.30;90.90;;;;;;5073648;28;20100;-85
2021/05/16 23:30:37;;;;;;;9.68;3.38;;;18.20;91.20;;;;;;5073276;28;20025;-83
2021/05/16 23:33:05;;;;;;;9.73;4.03;;;18.10;91.50;;;;;;5074127;28;20031;-82
2021/05/16 23:35:30;;;;;;;6.75;2.70;;;18.00;92.00;;;;;;5073718;28;20055;-81
2021/05/16 23:37:57;;;;;;;7.57;4.70;;;18.00;92.10;;;;;;5072688;28;20024;-80
2021/05/16 23:40:24;;;;;;;6.60;4.13;;;17.90;92.60;;;;;;5055647;28;20501;-76
2021/05/16 23:42:50;;;;;;;6.20;4.38;;;17.80;92.70;;;;;;5055646;28;20036;-77
2021/05/16 23:45:16;;;;;;;8.18;4.55;;;17.70;93.00;;;;;;5075004;28;20024;-77
2021/05/16 23:47:42;;;;;;;5.90;4.45;;;17.60;93.60;;;;;;5077996;28;20032;-77
2021/05/16 23:50:09;;;;;;;6.10;4.00;;;17.50;93.60;;;;;;5077956;28;20476;-77
2021/05/16 23:52:36;;;;;;;6.47;3.97;;;17.40;93.90;;;;;;5076095;28;20023;-78
2021/05/16 23:55:04;;;;;;;6.55;4.05;;;17.40;94.10;;;;;;5060076;28;20021;-77
2021/05/16 23:57:29;;;;;;;7.63;4.40;;;17.30;94.30;;;;;;5060164;28;20025;-77
2021/05/16 23:59:55;;;;;;;7.18;4.10;;;17.30;94.50;;;;;;5078082;28;20365;-77
